Time;durP1;ratioP1;P1;durP2;ratioP2;P2;SDS_P1;SDS_P2;PMS_P1;PMS_P2;Temp;Humidity;BMP_temperature;BMP_pressure;BME280_temperature;BME280_humidity;BME280_pressure;Samples;Min_cycle;Max_cycle;Signal;HPM_P1;HPM_P2
2022/07/25 00:02:04;;;;;;;6.80;3.95;;;;;;;20.75;86.29;96366.59;4953350;28;20147;-72
2022/07/25 00:04:30;;;;;;;8.10;4.10;;;;;;;20.67;86.99;96357.28;4966585;28;20074;-73
2022/07/25 00:06:55;;;;;;;6.47;3.83;;;;;;;20.65;86.41;96350.56;4963386;28;20129;-72
2022/07/25 00:09:21;;;;;;;8.57;4.60;;;;;;;20.64;87.84;96348.97;4965238;28;20117;-73
2022/07/25 00:11:46;;;;;;;6.25;4.10;;;;;;;20.65;87.08;96345.94;4967166;28;20042;-72
2022/07/25 00:14:12;;;;;;;9.13;4.65;;;;;;;20.59;86.98;96339.03;4967066;28;20061;-72
2022/07/25 00:16:38;;;;;;;6.40;4.32;;;;;;;20.58;87.82;96329.28;4966859;28;20041;-72
2022/07/25 00:19:09;;;;;;;7.05;4.43;;;;;;;20.54;88.82;96340.00;4963377;28;20050;-72
2022/07/25 00:21:35;;;;;;;;;;;;;;;20.55;88.45;96329.91;4969243;28;20333;-73
2022/07/25 00:24:00;;;;;;;6.15;3.90;;;;;;;20.50;88.26;96333.56;4963365;28;20030;-72
2022/07/25 00:26:25;;;;;;;7.95;3.90;;;;;;;20.45;89.00;96335.63;4966836;28;20444;-73
2022/07/25 00:28:51;;;;;;;7.30;4.47;;;;;;;20.37;89.54;96317.34;4961685;28;20041;-72
2022/07/25 00:31:16;;;;;;;6.90;4.28;;;;;;;20.45;89.19;96322.03;4966828;28;20042;-72
2022/07/25 00:33:42;;;;;;;5.88;4.50;;;;;;;20.34;89.50;96315.25;4964590;28;20433;-72
2022/07/25 00:36:08;;;;;;;9.15;4.60;;;;;;;20.34;89.62;96320.69;4965375;28;20294;-72
2022/07/25 00:38:34;;;;;;;6.28;4.55;;;;;;;20.34;90.26;96318.78;4965351;28;20046;-72
2022/07/25 00:40:59;;;;;;;9.15;4.65;;;;;;;20.33;89.56;96322.63;4951051;28;20039;-72
2022/07/25 00:43:25;;;;;;;6.75;4.57;;;;;;;20.34;90.42;96320.69;4944624;28;20035;-72
2022/07/25 00:45:50;;;;;;;6.95;4.50;;;;;;;20.31;90.03;96317.50;4968524;28;20617;-72
2022/07/25 00:48:15;;;;;;;8.95;5.45;;;;;;;20.27;90.69;96319.22;4962713;28;20034;-72
2022/07/25 00:50:41;;;;;;;7.82;4.90;;;;;;;20.24;90.66;96314.44;4967736;28;20573;-72
2022/07/25 00:53:07;;;;;;;7.18;4.65;;;;;;;20.24;90.65;96311.72;4964058;28;20058;-72
2022/07/25 00:55:33;;;;;;;7.13;4.30;;;;;;;20.20;91.75;96313.44;4968690;28;20065;-72
2022/07/25 00:57:58;;;;;;;9.38;4.78;;;;;;;20.34;90.71;96307.13;4962689;28;20058;-73
2022/07/25 01:00:24;;;;;;;10.77;4.57;;;;;;;20.34;90.06;96304.41;4965938;28;20116;-73
2022/07/25 01:02:50;;;;;;;6.18;4.10;;;;;;;20.36;91.20;96310.31;4964464;28;20511;-73
2022/07/25 01:05:15;;;;;;;8.63;4.82;;;;;;;20.35;90.76;96314.16;4932541;28;20275;-72
2022/07/25 01:07:41;;;;;;;6.63;4.40;;;;;;;20.31;91.70;96303.09;4955757;28;20065;-72
2022/07/25 01:10:07;;;;;;;7.53;4.32;;;;;;;20.26;91.82;96314.13;4964833;28;20038;-72
2022/07/25 01:12:52;;;;;;;8.80;4.75;;;;;;;20.17;93.00;96310.56;4965355;28;20038;-72
2022/07/25 01:15:19;;;;;;;11.52;4.35;;;;;;;20.10;92.44;96296.63;4965372;28;20038;-72
2022/07/25 01:17:45;;;;;;;7.25;4.45;;;;;;;20.03;93.35;96303.31;4965304;28;20132;-72
2022/07/25 01:20:31;;;;;;;9.05;4.88;;;;;;;19.99;94.11;96305.03;4962914;28;20125;-73
2022/07/25 01:22:57;;;;;;;7.93;4.88;;;;;;;20.02;94.13;96296.28;4962755;28;20073;-72
2022/07/25 01:25:23;;;;;;;8.43;4.40;;;;;;;20.04;94.39;96290.53;4965049;28;20089;-72
2022/07/25 01:27:50;;;;;;;8.63;4.13;;;;;;;20.04;94.42;96291.34;4962920;28;20043;-72
2022/07/25 01:30:16;;;;;;;5.88;4.43;;;;;;;20.06;93.99;96282.88;4966038;28;20057;-72
2022/07/25 01:32:43;;;;;;;8.85;4.68;;;;;;;20.01;94.87;96289.25;4966309;28;20063;-72
2022/07/25 01:35:09;;;;;;;8.45;4.47;;;;;;;19.94;94.56;96275.31;4968085;28;20035;-72
2022/07/25 01:37:35;;;;;;;8.32;4.38;;;;;;;20.00;94.24;96278.72;4966816;28;20050;-73
2022/07/25 01:40:01;;;;;;;7.72;4.57;;;;;;;20.02;94.54;96279.19;4968557;28;20035;-72
2022/07/25 01:42:27;;;;;;;7.35;4.80;;;;;;;19.98;95.04;96275.47;4967166;28;20041;-72
2022/07/25 01:44:52;;;;;;;7.93;4.63;;;;;;;19.98;95.02;96272.78;4972294;28;20031;-72
2022/07/25 01:47:18;;;;;;;8.80;4.57;;;;;;;20.07;94.58;96268.16;4970778;28;20166;-73
2022/07/25 01:49:43;;;;;;;7.35;4.85;;;;;;;20.14;94.18;96260.38;4972940;28;20379;-72
2022/07/25 01:52:10;;;;;;;8.50;4.82;;;;;;;20.26;93.84;96260.59;4968947;28;20205;-73
2022/07/25 01:54:36;;;;;;;7.18;4.93;;;;;;;20.24;92.79;96254.66;4972522;28;20042;-73
2022/07/25 01:57:01;;;;;;;7.38;4.90;;;;;;;20.33;92.96;96251.19;4969138;28;20074;-72
2022/07/25 01:59:27;;;;;;;11.20;4.90;;;;;;;20.31;93.70;96259.63;4967348;28;20034;-72
2022/07/25 02:01:52;;;;;;;10.13;4.93;;;;;;;20.28;92.68;96246.69;4967756;28;20114;-73
2022/07/25 02:04:17;;;;;;;7.75;5.10;;;;;;;20.21;94.00;96252.56;4970323;28;20030;-72
2022/07/25 02:06:43;;;;;;;8.02;4.55;;;;;;;20.17;94.79;96248.91;4951559;28;20333;-73
2022/07/25 02:09:09;;;;;;;8.82;4.95;;;;;;;20.14;94.23;96249.50;4966297;28;20121;-72
2022/07/25 02:11:35;;;;;;;7.65;5.00;;;;;;;20.10;94.78;96248.53;4967074;28;20494;-73
2022/07/25 02:14:01;;;;;;;6.82;4.63;;;;;;;20.07;95.48;96254.59;4967997;28;20042;-72
2022/07/25 02:16:27;;;;;;;8.25;4.80;;;;;;;20.00;96.15;96259.69;4969555;28;20166;-72
2022/07/25 02:18:53;;;;;;;7.97;4.80;;;;;;;19.93;96.90;96251.19;4965084;28;20043;-72
2022/07/25 02:21:19;;;;;;;9.90;5.32;;;;;;;19.88;96.21;96254.03;4967077;28;20041;-72
2022/07/25 02:23:47;;;;;;;7.95;4.40;;;;;;;19.88;96.24;96240.47;4965900;28;20399;-73
2022/07/25 02:26:13;;;;;;;8.25;5.20;;;;;;;19.93;96.91;96252.00;4971355;28;20050;-72
2022/07/25 02:28:39;;;;;;;8.23;4.68;;;;;;;19.94;96.91;96250.88;4965295;28;20034;-73
2022/07/25 02:31:05;;;;;;;8.95;4.50;;;;;;;19.89;96.36;96239.34;4968908;28;20074;-73
2022/07/25 02:33:30;;;;;;;8.65;4.85;;;;;;;19.84;97.18;96237.56;4968534;28;20044;-72
2022/07/25 02:35:56;;;;;;;9.73;5.05;;;;;;;19.89;97.32;96242.88;4968378;28;20161;-72
2022/07/25 02:38:21;;;;;;;7.05;4.65;;;;;;;19.88;96.92;96237.75;4950346;28;20042;-72
2022/07/25 02:40:51;;;;;;;10.27;5.45;;;;;;;19.90;97.44;96233.59;4968044;28;20042;-73
2022/07/25 02:43:18;;;;;;;10.25;5.05;;;;;;;19.97;96.95;96230.44;4966686;28;20398;-73
2022/07/25 02:45:44;;;;;;;9.98;4.70;;;;;;;20.02;97.09;96235.75;4965400;28;20039;-72
2022/07/25 02:48:10;;;;;;;11.65;4.97;;;;;;;19.98;96.47;96229.31;4966479;28;20137;-73
2022/07/25 02:50:36;;;;;;;8.65;4.63;;;;;;;20.03;96.66;96231.91;4969095;28;20048;-73
2022/07/25 02:53:03;;;;;;;6.55;4.75;;;;;;;20.07;96.07;96219.28;4965831;28;20618;-72
2022/07/25 02:55:29;;;;;;;8.05;5.18;;;;;;;20.12;96.32;96218.34;4971588;28;20034;-72
2022/07/25 02:57:55;;;;;;;6.68;4.70;;;;;;;20.11;95.88;96217.56;4968780;28;20395;-73
2022/07/25 03:00:21;;;;;;;8.57;4.88;;;;;;;20.12;96.20;96205.56;4950929;28;20514;-73
2022/07/25 03:02:47;;;;;;;9.77;4.72;;;;;;;20.15;95.15;96210.34;4967717;28;20082;-73
2022/07/25 03:05:14;;;;;;;8.38;5.10;;;;;;;20.02;96.34;96193.09;4967311;28;20059;-73
2022/07/25 03:07:41;;;;;;;7.30;4.50;;;;;;;20.06;96.63;96203.31;4967339;28;20189;-73
2022/07/25 03:10:09;;;;;;;9.15;5.10;;;;;;;20.10;95.67;96202.38;4966320;28;20031;-72
2022/07/25 03:12:35;;;;;;;7.25;4.70;;;;;;;20.08;96.65;96207.34;4967157;28;20042;-72
2022/07/25 03:15:02;;;;;;;7.65;4.88;;;;;;;20.02;97.31;96203.16;4965292;28;20125;-72
2022/07/25 03:17:28;;;;;;;10.52;5.18;;;;;;;19.99;96.75;96195.63;4968775;28;20043;-72
2022/07/25 03:19:54;;;;;;;8.57;5.63;;;;;;;19.94;97.13;96206.63;4965326;28;20061;-72
2022/07/25 03:22:21;;;;;;;8.75;5.03;;;;;;;19.82;98.08;96204.50;4967355;28;20061;-73
2022/07/25 03:24:47;;;;;;;6.82;4.78;;;;;;;19.79;97.84;96210.56;4966818;28;20053;-72
2022/07/25 03:27:13;;;;;;;9.65;5.38;;;;;;;19.80;97.89;96189.66;4967081;28;20046;-72
2022/07/25 03:29:39;;;;;;;7.47;4.93;;;;;;;19.79;98.17;96194.28;4967041;28;20039;-72
2022/07/25 03:32:05;;;;;;;9.23;4.88;;;;;;;19.82;98.04;96195.56;4965547;28;20426;-72
2022/07/25 03:34:30;;;;;;;8.02;5.25;;;;;;;19.82;97.80;96188.22;4964237;28;20160;-72
2022/07/25 03:36:56;;;;;;;7.43;4.75;;;;;;;19.80;98.17;96195.88;4966378;28;20073;-72
2022/07/25 03:39:23;;;;;;;9.00;5.28;;;;;;;19.78;97.75;96181.84;4968279;28;20062;-72
2022/07/25 03:41:49;;;;;;;6.97;5.03;;;;;;;19.73;97.92;96182.75;4966579;28;20031;-73
2022/07/25 03:44:14;;;;;;;7.25;4.78;;;;;;;19.70;98.86;96185.31;4967604;28;20046;-73
2022/07/25 03:46:40;;;;;;;7.93;5.00;;;;;;;19.69;99.03;96176.38;4967809;28;20520;-73
2022/07/25 03:49:05;;;;;;;8.10;4.95;;;;;;;19.60;99.52;96180.94;4963109;28;20289;-73
2022/07/25 03:51:31;;;;;;;8.45;5.30;;;;;;;19.56;99.43;96177.22;4967321;28;20046;-72
2022/07/25 03:54:02;;;;;;;6.93;4.80;;;;;;;19.53;99.91;96180.56;4965854;28;20043;-72
2022/07/25 03:56:36;;;;;;;8.00;5.47;;;;;;;19.51;100.00;96177.34;4966579;28;20541;-72
2022/07/25 03:59:03;;;;;;;8.32;5.25;;;;;;;19.46;100.00;96167.47;4948296;28;20034;-73
2022/07/25 04:01:29;;;;;;;7.65;5.38;;;;;;;19.47;100.00;96171.78;4967791;28;20046;-73
2022/07/25 04:03:54;;;;;;;8.40;5.13;;;;;;;19.49;100.00;96164.09;4965858;28;20505;-73
2022/07/25 04:06:23;;;;;;;9.23;6.00;;;;;;;19.51;100.00;96163.78;4965458;28;20035;-73
2022/07/25 04:08:49;;;;;;;8.70;5.38;;;;;;;19.53;100.00;96152.63;4963687;28;20041;-73
2022/07/25 04:11:15;;;;;;;7.35;4.80;;;;;;;19.52;100.00;96159.97;4967373;28;20046;-73
2022/07/25 04:13:41;;;;;;;10.30;5.35;;;;;;;19.54;100.00;96155.03;4968635;28;20073;-73
2022/07/25 04:16:07;;;;;;;8.65;5.78;;;;;;;19.53;100.00;96153.41;4964827;28;20460;-73
2022/07/25 04:18:33;;;;;;;7.50;5.05;;;;;;;19.52;100.00;96151.81;4966633;28;20030;-73
2022/07/25 04:20:58;;;;;;;17.02;5.07;;;;;;;19.53;100.00;96155.34;4964712;28;20245;-73
2022/07/25 04:23:24;;;;;;;9.73;5.65;;;;;;;19.50;100.00;96154.06;4966165;28;20042;-73
2022/07/25 04:25:54;;;;;;;8.38;5.03;;;;;;;19.44;100.00;96155.28;4967140;28;20039;-73
2022/07/25 04:28:20;;;;;;;10.35;5.07;;;;;;;19.42;100.00;96146.69;4945911;28;20485;-73
2022/07/25 04:30:45;;;;;;;9.27;4.90;;;;;;;19.43;100.00;96142.84;4966626;28;20066;-73
2022/07/25 04:33:12;;;;;;;9.55;5.20;;;;;;;19.46;100.00;96139.53;4945091;28;20034;-73
2022/07/25 04:35:40;;;;;;;10.95;5.35;;;;;;;19.51;100.00;96133.94;4950469;28;20078;-73
2022/07/25 04:38:05;;;;;;;8.93;4.78;;;;;;;19.55;100.00;96132.22;4963677;28;20442;-73
2022/07/25 04:40:31;;;;;;;10.13;5.45;;;;;;;19.56;100.00;96127.59;4966928;28;20042;-73
2022/07/25 04:42:56;;;;;;;8.93;5.38;;;;;;;19.64;100.00;96126.84;4962312;28;20363;-73
2022/07/25 04:45:25;;;;;;;8.95;4.90;;;;;;;19.71;100.00;96130.72;4963968;28;20026;-73
2022/07/25 04:47:50;;;;;;;11.75;5.15;;;;;;;19.74;100.00;96130.06;4963421;28;20053;-73
2022/07/25 04:50:16;;;;;;;9.48;5.15;;;;;;;19.80;99.96;96119.06;4965413;28;20340;-73
2022/07/25 04:52:42;;;;;;;11.27;5.22;;;;;;;19.85;100.00;96111.59;4967868;28;20528;-73
2022/07/25 04:55:08;;;;;;;9.02;4.93;;;;;;;19.95;99.64;96119.44;4965269;28;20461;-73
2022/07/25 04:57:34;;;;;;;8.27;5.07;;;;;;;20.03;99.40;96109.69;4966380;28;20144;-73
2022/07/25 05:00:00;;;;;;;9.23;4.32;;;;;;;20.09;99.37;96108.44;4964778;28;20038;-73
2022/07/25 05:02:25;;;;;;;9.95;5.13;;;;;;;20.13;99.93;96105.88;4963954;28;20038;-73
2022/07/25 05:04:51;;;;;;;9.90;4.65;;;;;;;20.21;99.26;96111.31;4963712;28;20065;-73
2022/07/25 05:07:17;;;;;;;8.30;5.03;;;;;;;20.29;99.51;96112.44;4968904;28;20054;-73
2022/07/25 05:09:42;;;;;;;11.23;4.75;;;;;;;20.36;98.06;96107.31;4965293;28;20257;-73
2022/07/25 05:12:08;;;;;;;7.38;5.03;;;;;;;20.44;98.38;96094.91;4965513;28;20035;-73
2022/07/25 05:14:34;;;;;;;7.78;5.10;;;;;;;20.51;97.98;96101.44;4965444;28;20154;-73
2022/07/25 05:17:00;;;;;;;8.48;4.68;;;;;;;20.59;97.96;96100.63;4949081;28;20081;-73
2022/07/25 05:19:25;;;;;;;9.10;5.20;;;;;;;20.67;97.17;96098.25;4966275;28;20137;-73
2022/07/25 05:21:51;;;;;;;9.55;5.00;;;;;;;20.73;96.93;96100.47;4966263;28;20174;-73
2022/07/25 05:24:16;;;;;;;9.10;4.75;;;;;;;20.77;97.22;96106.84;4966877;28;20034;-73
2022/07/25 05:26:42;;;;;;;6.75;4.65;;;;;;;20.85;96.61;96099.81;4965944;28;20118;-73
2022/07/25 05:29:09;;;;;;;7.05;4.35;;;;;;;20.90;97.50;96105.09;4966266;28;20658;-73
2022/07/25 05:31:35;;;;;;;7.45;4.78;;;;;;;21.00;95.85;96096.56;4964209;28;20049;-73
2022/07/25 05:34:00;;;;;;;9.38;4.72;;;;;;;21.06;96.51;96094.50;4963447;28;20066;-73
2022/07/25 05:36:26;;;;;;;8.10;4.18;;;;;;;21.13;95.68;96095.59;4966161;28;20255;-73
2022/07/25 05:38:51;;;;;;;8.82;4.88;;;;;;;21.20;95.78;96095.09;4964354;28;20038;-74
2022/07/25 05:41:19;;;;;;;8.60;4.82;;;;;;;21.26;95.89;96087.56;4964819;28;20045;-73
2022/07/25 05:43:46;;;;;;;7.43;4.93;;;;;;;21.36;96.12;96092.66;4966163;28;20069;-73
2022/07/25 05:46:12;;;;;;;7.88;4.95;;;;;;;21.47;96.18;96083.00;4967486;28;20096;-73
2022/07/25 05:48:37;;;;;;;8.60;5.28;;;;;;;21.55;96.01;96089.53;4963000;28;20034;-73
2022/07/25 05:51:03;;;;;;;8.27;4.68;;;;;;;21.63;95.59;96092.25;4969576;28;20034;-73
2022/07/25 05:53:28;;;;;;;7.82;4.60;;;;;;;21.74;95.72;96086.41;4964861;28;20045;-73
2022/07/25 05:55:55;;;;;;;9.05;5.03;;;;;;;21.82;95.19;96089.09;4967039;28;20081;-73
2022/07/25 05:58:20;;;;;;;7.18;4.85;;;;;;;21.90;96.22;96085.50;4964017;28;20044;-73
2022/07/25 06:00:45;;;;;;;9.75;5.35;;;;;;;21.98;95.39;96084.66;4967046;28;20585;-73
2022/07/25 06:03:11;;;;;;;14.07;5.72;;;;;;;22.08;94.95;96082.69;4962830;28;20038;-74
2022/07/25 06:05:36;;;;;;;13.95;5.68;;;;;;;22.16;95.06;96085.34;4967215;28;20514;-73
2022/07/25 06:08:02;;;;;;;11.70;4.97;;;;;;;22.23;95.49;96077.47;4946591;28;20058;-73
2022/07/25 06:10:27;;;;;;;8.55;5.10;;;;;;;22.32;95.66;96090.22;4972128;28;20373;-74
2022/07/25 06:12:53;;;;;;;11.48;5.97;;;;;;;22.37;95.60;96079.91;4969278;28;20511;-73
2022/07/25 06:15:18;;;;;;;11.35;5.35;;;;;;;22.43;94.95;96085.97;4966314;28;20061;-74
2022/07/25 06:17:44;;;;;;;11.63;5.53;;;;;;;22.49;95.05;96077.25;4963753;28;20042;-73
2022/07/25 06:20:11;;;;;;;13.45;5.30;;;;;;;22.60;95.23;96068.66;4967176;28;20806;-73
2022/07/25 06:22:37;;;;;;;9.27;5.38;;;;;;;22.69;95.22;96074.84;4968353;28;20031;-73
2022/07/25 06:25:04;;;;;;;8.50;5.72;;;;;;;22.77;95.11;96071.22;4967576;28;20061;-73
2022/07/25 06:27:29;;;;;;;9.73;5.35;;;;;;;22.85;94.96;96077.72;4968036;28;20038;-73
2022/07/25 06:29:55;;;;;;;9.30;5.40;;;;;;;22.95;94.72;96071.88;4967763;28;20546;-73
2022/07/25 06:32:20;;;;;;;8.38;4.78;;;;;;;23.03;95.26;96065.53;4967263;28;20445;-74
2022/07/25 06:34:46;;;;;;;6.85;4.28;;;;;;;23.20;91.16;96065.34;4967528;28;20038;-73
2022/07/25 06:37:11;;;;;;;8.95;4.93;;;;;;;23.37;93.54;96069.00;4967358;28;20035;-73
2022/07/25 06:39:36;;;;;;;8.07;5.30;;;;;;;23.54;92.00;96058.66;4967760;28;20122;-74
2022/07/25 06:42:03;;;;;;;8.93;5.40;;;;;;;23.80;90.00;96063.00;4966243;28;20483;-73
2022/07/25 06:44:33;;;;;;;13.63;5.70;;;;;;;23.96;88.09;96058.41;4951558;28;20070;-74
2022/07/25 06:47:02;;;;;;;18.48;5.50;;;;;;;23.90;88.84;96063.34;4967206;28;20836;-74
2022/07/25 06:49:28;;;;;;;11.35;5.43;;;;;;;23.91;87.86;96061.41;4966013;28;20077;-73
2022/07/25 06:51:54;;;;;;;6.57;4.53;;;;;;;23.92;88.32;96060.25;4967881;28;20464;-73
2022/07/25 06:54:19;;;;;;;7.38;4.57;;;;;;;23.96;88.94;96055.69;4965855;28;20043;-74
2022/07/25 06:56:45;;;;;;;12.20;5.75;;;;;;;24.01;88.31;96057.41;4968721;28;20042;-73
2022/07/25 06:59:10;;;;;;;7.53;5.28;;;;;;;24.04;88.40;96056.69;4966085;28;20038;-73
2022/07/25 07:01:36;;;;;;;9.73;5.20;;;;;;;24.08;87.64;96052.16;4968853;28;20034;-74
2022/07/25 07:04:02;;;;;;;7.30;5.40;;;;;;;24.12;88.98;96051.13;4966049;28;20038;-73
2022/07/25 07:06:28;;;;;;;6.38;4.75;;;;;;;24.16;88.57;96052.00;4969440;28;20050;-74
2022/07/25 07:08:53;;;;;;;10.57;5.40;;;;;;;24.25;88.30;96042.88;4964352;28;20500;-74
2022/07/25 07:11:19;;;;;;;8.48;5.15;;;;;;;24.33;87.94;96047.44;4966495;28;20126;-74
2022/07/25 07:13:44;;;;;;;6.93;5.10;;;;;;;24.38;87.50;96053.47;4968291;28;20066;-73
2022/07/25 07:16:10;;;;;;;11.27;5.47;;;;;;;24.42;87.23;96048.09;4967513;28;20482;-74
2022/07/25 07:18:36;;;;;;;7.80;5.22;;;;;;;24.51;88.83;96046.00;4968631;28;20092;-73
2022/07/25 07:21:03;;;;;;;10.07;5.43;;;;;;;24.56;87.46;96044.97;4967909;28;20043;-73
2022/07/25 07:23:29;;;;;;;10.00;5.40;;;;;;;24.60;86.94;96037.66;4965209;28;20051;-74
2022/07/25 07:25:54;;;;;;;7.25;4.47;;;;;;;24.66;86.18;96042.50;4966535;28;20485;-74
2022/07/25 07:28:20;;;;;;;6.45;4.57;;;;;;;24.76;85.11;96043.97;4963924;28;20145;-74
2022/07/25 07:30:45;;;;;;;8.13;5.32;;;;;;;24.84;85.76;96047.69;4968676;28;20383;-74
2022/07/25 07:33:11;;;;;;;8.93;5.18;;;;;;;24.92;85.70;96050.28;4965695;28;20504;-74
2022/07/25 07:35:36;;;;;;;7.50;5.30;;;;;;;24.98;85.34;96059.00;4967350;28;20493;-74
2022/07/25 07:38:02;;;;;;;7.80;5.22;;;;;;;24.97;84.71;96052.72;4967730;28;20046;-73
2022/07/25 07:40:28;;;;;;;6.25;4.75;;;;;;;25.05;85.78;96045.53;4969835;28;20053;-74
2022/07/25 07:42:55;;;;;;;8.32;5.10;;;;;;;25.14;83.79;96051.66;4968217;28;20128;-74
2022/07/25 07:45:22;;;;;;;6.65;4.72;;;;;;;25.08;83.90;96042.13;4969547;28;20508;-74
2022/07/25 07:47:50;;;;;;;6.75;4.95;;;;;;;25.12;84.83;96036.72;4967252;28;20514;-74
2022/07/25 07:50:17;;;;;;;6.57;4.78;;;;;;;25.17;84.28;96031.00;4967739;28;20050;-74
2022/07/25 07:52:43;;;;;;;8.05;5.07;;;;;;;25.26;84.00;96034.34;4963786;28;20360;-74
2022/07/25 07:57:54;;;;;;;9.75;5.30;;;;;;;25.48;83.70;96021.97;4965428;28;20464;-73
2022/07/25 08:00:21;;;;;;;8.90;5.03;;;;;;;25.58;82.88;96026.91;4964681;28;20117;-74
2022/07/25 08:02:51;;;;;;;7.15;4.55;;;;;;;25.71;80.22;96028.44;4966314;28;20128;-73
2022/07/25 08:05:25;;;;;;;7.82;5.15;;;;;;;25.79;80.29;96026.66;4964730;28;20038;-74
2022/07/25 08:07:52;;;;;;;8.02;5.40;;;;;;;25.99;79.87;96019.25;4965593;28;20097;-74
2022/07/25 08:10:25;;;;;;;7.00;5.22;;;;;;;26.25;77.60;96016.69;4966013;28;20667;-74
2022/07/25 08:12:51;;;;;;;6.70;5.10;;;;;;;26.57;76.55;96019.31;4964805;28;20057;-74
2022/07/25 08:15:19;;;;;;;10.05;4.88;;;;;;;26.86;72.17;96029.69;4965106;28;20042;-74
2022/07/25 08:17:45;;;;;;;9.30;5.68;;;;;;;27.07;74.15;96029.28;4948522;28;20042;-74
2022/07/25 08:20:12;;;;;;;8.57;5.28;;;;;;;26.85;76.67;96030.84;4965259;28;20066;-74
2022/07/25 08:22:38;;;;;;;7.57;5.10;;;;;;;27.18;74.73;96024.00;4966955;28;20042;-74
2022/07/25 08:25:05;;;;;;;8.70;5.32;;;;;;;27.60;73.88;96015.66;4963981;28;20113;-74
2022/07/25 08:27:30;;;;;;;16.38;4.88;;;;;;;27.77;73.85;96006.13;4964588;28;20403;-74
2022/07/25 08:29:57;;;;;;;9.23;5.13;;;;;;;27.60;71.46;96004.66;4964645;28;20112;-74
2022/07/25 08:32:23;;;;;;;9.75;5.53;;;;;;;27.46;74.09;96009.94;4963223;28;20137;-74
2022/07/25 08:34:48;;;;;;;9.95;4.35;;;;;;;27.20;74.93;96002.47;4964451;28;20061;-74
2022/07/25 08:37:13;;;;;;;9.50;5.43;;;;;;;27.04;72.63;96001.78;4963363;28;20640;-74
2022/07/25 08:39:40;;;;;;;8.30;4.93;;;;;;;26.90;76.05;96003.09;4965252;28;20038;-74
2022/07/25 08:42:07;;;;;;;7.15;5.20;;;;;;;26.88;75.93;96005.41;4965510;28;20043;-74
2022/07/25 08:44:36;;;;;;;12.25;5.53;;;;;;;26.91;78.46;96003.88;4964372;28;20118;-74
2022/07/25 08:47:02;;;;;;;11.43;5.20;;;;;;;26.77;76.04;96015.41;4965540;28;20141;-73
2022/07/25 08:49:27;;;;;;;14.65;5.35;;;;;;;26.94;78.65;96014.94;4967119;28;20052;-74
2022/07/25 08:51:55;;;;;;;8.68;5.65;;;;;;;27.27;75.28;96007.28;4965672;28;20125;-74
2022/07/25 08:54:22;;;;;;;12.40;5.82;;;;;;;27.35;75.99;96018.00;4937059;28;20045;-74
2022/07/25 08:56:47;;;;;;;8.65;5.53;;;;;;;27.19;73.71;96017.34;4965075;28;20046;-74
2022/07/25 08:59:13;;;;;;;9.98;5.50;;;;;;;27.36;74.45;96013.31;4965186;28;20038;-74
2022/07/25 09:01:39;;;;;;;8.75;4.97;;;;;;;27.72;73.88;96003.72;4965189;28;20601;-74
2022/07/25 09:04:07;;;;;;;12.15;5.40;;;;;;;28.01;73.81;95989.19;4960424;28;20039;-74
2022/07/25 09:06:32;;;;;;;7.32;5.20;;;;;;;28.29;70.18;95993.47;4963395;28;20172;-74
2022/07/25 09:08:59;;;;;;;7.63;4.90;;;;;;;28.45;68.81;95991.34;4964549;28;20050;-74
2022/07/25 09:11:27;;;;;;;9.15;5.35;;;;;;;28.62;67.99;95998.22;4964514;28;20049;-74
2022/07/25 09:14:02;;;;;;;6.40;4.60;;;;;;;28.54;62.06;95991.84;4960258;28;20058;-74
2022/07/25 09:16:33;;;;;;;13.23;5.55;;;;;;;28.69;61.02;95995.53;4966917;28;20042;-74
2022/07/25 09:19:16;;;;;;;9.10;4.95;;;;;;;28.98;53.98;95991.16;4959007;28;20046;-74
2022/07/25 09:21:43;;;;;;;6.43;4.75;;;;;;;29.09;54.52;95994.00;4959801;28;20046;-74
2022/07/25 09:24:11;;;;;;;9.07;5.70;;;;;;;29.39;52.44;95993.88;4966604;28;20393;-74
2022/07/25 09:26:48;;;;;;;8.77;4.63;;;;;;;29.45;51.24;95981.34;4966261;28;20045;-74
2022/07/25 09:29:20;;;;;;;8.50;5.05;;;;;;;29.58;48.75;95988.16;4964165;28;20081;-74
2022/07/25 09:31:46;;;;;;;6.88;4.72;;;;;;;29.97;49.77;95995.91;4965052;28;20114;-74
2022/07/25 09:34:16;;;;;;;7.57;5.00;;;;;;;29.94;46.95;95997.44;4964861;28;20035;-74
2022/07/25 09:36:54;;;;;;;12.98;5.32;;;;;;;29.69;46.92;96013.81;4965067;28;20049;-74
2022/07/25 09:39:19;;;;;;;7.05;5.10;;;;;;;29.99;48.49;96010.09;4968605;28;20042;-74
2022/07/25 09:41:45;;;;;;;7.43;4.70;;;;;;;29.89;46.69;96011.59;4965816;28;20463;-74
2022/07/25 09:44:28;;;;;;;7.18;5.22;;;;;;;29.79;47.09;96011.53;4964657;28;20050;-74
2022/07/25 09:46:54;;;;;;;8.13;5.40;;;;;;;29.75;48.34;95999.69;4967105;28;20349;-74
2022/07/25 09:49:21;;;;;;;5.97;4.47;;;;;;;30.19;47.18;95997.59;4962981;28;20058;-74
2022/07/25 09:51:47;;;;;;;9.98;5.43;;;;;;;30.11;45.17;95995.97;4964524;28;20100;-74
2022/07/25 09:54:13;;;;;;;6.53;4.68;;;;;;;30.35;42.93;95989.03;4950648;28;20042;-74
2022/07/25 09:56:38;;;;;;;8.80;5.28;;;;;;;30.20;42.32;95977.13;4966425;28;20137;-74
2022/07/25 09:59:04;;;;;;;9.57;4.88;;;;;;;30.16;43.13;95984.59;4969536;28;20046;-74
2022/07/25 10:01:36;;;;;;;8.93;5.07;;;;;;;30.37;42.27;95985.88;4972040;28;20057;-74
2022/07/25 10:04:24;;;;;;;7.25;5.32;;;;;;;30.23;42.43;95986.59;4970105;28;20050;-74
2022/07/25 10:07:09;;;;;;;7.28;5.10;;;;;;;30.33;42.87;95982.28;4969625;28;20050;-74
2022/07/25 10:09:42;;;;;;;7.05;5.53;;;;;;;30.60;42.90;95971.75;4970569;28;20534;-74
2022/07/25 10:12:09;;;;;;;7.55;4.95;;;;;;;30.74;42.54;95978.16;4970809;28;20363;-74
2022/07/25 10:14:36;;;;;;;12.10;5.20;;;;;;;30.73;44.90;95981.28;4968941;28;20394;-74
2022/07/25 10:17:02;;;;;;;6.88;4.32;;;;;;;30.96;43.41;95983.69;4967854;28;20046;-74
2022/07/25 10:19:43;;;;;;;8.63;4.60;;;;;;;30.97;42.50;95974.22;4966097;28;20034;-74
2022/07/25 10:22:09;;;;;;;7.75;4.85;;;;;;;31.78;40.87;95973.50;4965739;28;20265;-74
2022/07/25 10:24:37;;;;;;;8.38;4.90;;;;;;;31.95;38.99;95987.69;4968765;28;20033;-74
2022/07/25 10:27:10;;;;;;;7.47;4.80;;;;;;;32.28;39.29;95973.34;4966192;28;20101;-74
2022/07/25 10:29:39;;;;;;;7.65;4.75;;;;;;;32.32;38.81;95979.69;4278541;28;10000405;-74
2022/07/25 10:32:06;;;;;;;7.82;5.10;;;;;;;32.02;42.15;95979.38;4965360;28;20078;-75
2022/07/25 10:34:33;;;;;;;9.77;5.32;;;;;;;31.87;41.06;95989.66;4971964;28;20054;-74
2022/07/25 10:37:12;;;;;;;7.45;4.50;;;;;;;32.15;40.04;95980.53;4951846;28;20042;-74
2022/07/25 10:39:40;;;;;;;8.35;5.43;;;;;;;32.47;39.72;95991.50;4965802;28;20046;-75
2022/07/25 10:42:06;;;;;;;9.45;5.00;;;;;;;32.13;39.75;95977.34;4965417;28;20078;-74
2022/07/25 10:44:43;;;;;;;6.93;5.22;;;;;;;31.66;41.90;95990.44;4967405;28;20407;-74
2022/07/25 10:47:10;;;;;;;8.05;4.88;;;;;;;31.60;41.92;95986.53;4964893;28;20042;-74
2022/07/25 10:49:40;;;;;;;10.10;5.50;;;;;;;31.72;41.90;95997.16;4964349;28;20042;-74
2022/07/25 10:52:06;;;;;;;9.40;5.28;;;;;;;31.66;42.03;96000.72;4964295;28;20351;-74
2022/07/25 10:54:34;;;;;;;13.30;5.90;;;;;;;31.31;43.62;95994.03;4940407;28;20055;-74
2022/07/25 10:57:01;;;;;;;10.77;5.18;;;;;;;31.09;45.60;95998.72;4965955;28;20047;-74
2022/07/25 10:59:36;;;;;;;10.77;5.53;;;;;;;30.87;46.92;96008.13;4967338;28;20070;-74
2022/07/25 11:02:05;;;;;;;7.40;4.75;;;;;;;30.61;47.34;96018.28;4963510;28;20126;-73
2022/07/25 11:04:31;;;;;;;7.88;4.80;;;;;;;30.32;45.52;96002.78;4966766;28;20173;-73
2022/07/25 11:07:06;;;;;;;8.75;4.68;;;;;;;30.22;46.25;96012.59;4968703;28;20273;-73
2022/07/25 11:09:31;;;;;;;7.65;5.10;;;;;;;30.55;46.67;96014.31;4965754;28;20132;-73
2022/07/25 11:11:58;;;;;;;9.80;5.10;;;;;;;31.05;44.36;96009.78;4967409;28;20038;-73
2022/07/25 11:14:33;;;;;;;9.45;4.88;;;;;;;30.98;45.30;96018.03;4964404;28;20074;-73
2022/07/25 11:17:21;;;;;;;16.08;5.05;;;;;;;30.34;48.89;96020.53;4964207;28;20054;-74
2022/07/25 11:20:07;;;;;;;8.60;5.00;;;;;;;29.62;51.52;96016.53;4965215;28;20373;-73
2022/07/25 11:22:33;;;;;;;7.35;4.80;;;;;;;29.20;52.38;96019.69;4965756;28;20213;-74
2022/07/25 11:24:59;;;;;;;7.18;4.35;;;;;;;28.71;58.18;96011.69;4966197;28;20034;-73
2022/07/25 11:27:27;;;;;;;7.43;4.30;;;;;;;28.42;60.14;96024.34;4963679;28;20282;-73
2022/07/25 11:30:06;;;;;;;9.68;5.15;;;;;;;28.31;65.03;96016.72;4962940;28;20045;-73
2022/07/25 11:32:54;;;;;;;7.55;5.38;;;;;;;28.25;65.90;96020.97;4964276;28;20066;-75
2022/07/25 11:35:26;;;;;;;10.52;4.70;;;;;;;28.01;73.50;96011.19;4946815;28;20034;-73